Time;durP1;ratioP1;P1;durP2;ratioP2;P2;SDS_P1;SDS_P2;PMS_P1;PMS_P2;Temp;Humidity;BMP_temperature;BMP_pressure;BME280_temperature;BME280_humidity;BME280_pressure;Samples;Min_cycle;Max_cycle;Signal;HPM_P1;HPM_P2
2021/10/16 00:00:40;;;;;;;16.23;3.00;;;;;;;6.74;nan;101831.22;5066595;28;20302;-47
2021/10/16 00:03:06;;;;;;;14.32;3.13;;;;;;;6.84;nan;101845.03;5064610;28;20064;-50
2021/10/16 00:05:31;;;;;;;9.35;2.30;;;;;;;6.80;nan;101839.25;5067081;28;20027;-48
2021/10/16 00:07:57;;;;;;;15.85;2.53;;;;;;;6.78;nan;101838.63;5067971;28;20050;-48
2021/10/16 00:10:23;;;;;;;13.68;2.72;;;;;;;6.75;nan;101849.66;5067465;28;20032;-51
2021/10/16 00:12:50;;;;;;;13.27;3.08;;;;;;;6.73;nan;101843.72;5063443;28;20486;-47
2021/10/16 00:15:16;;;;;;;8.48;2.22;;;;;;;6.81;nan;101843.53;5066190;28;20490;-48
2021/10/16 00:17:41;;;;;;;11.32;3.08;;;;;;;6.73;nan;101853.53;5068456;28;20074;-47
2021/10/16 00:20:08;;;;;;;8.98;2.55;;;;;;;6.72;nan;101854.56;5068808;28;20086;-49
2021/10/16 00:22:34;;;;;;;11.05;2.35;;;;;;;6.75;nan;101857.66;5066227;28;20032;-47
2021/10/16 00:24:59;;;;;;;7.07;2.00;;;;;;;6.70;nan;101862.75;5069782;28;20028;-49
2021/10/16 00:27:25;;;;;;;14.30;2.65;;;;;;;6.78;nan;101857.25;5069593;28;20433;-50
2021/10/16 00:29:50;;;;;;;9.48;2.70;;;;;;;6.68;nan;101862.13;5068613;28;20417;-49
2021/10/16 00:32:16;;;;;;;19.05;2.67;;;;;;;6.66;nan;101856.19;5067477;28;20048;-47
2021/10/16 00:34:41;;;;;;;14.32;2.33;;;;;;;6.63;nan;101853.88;5069675;28;20052;-49
2021/10/16 00:37:07;;;;;;;17.70;2.33;;;;;;;6.60;nan;101854.28;5067464;28;20038;-47
2021/10/16 00:39:32;;;;;;;14.75;2.83;;;;;;;6.61;nan;101861.25;5068742;28;20051;-48
2021/10/16 00:41:58;;;;;;;17.05;2.42;;;;;;;6.57;nan;101860.00;5067070;28;20111;-48
2021/10/16 00:44:25;;;;;;;12.38;3.15;;;;;;;6.48;nan;101861.16;5067406;28;20031;-50
2021/10/16 00:46:56;;;;;;;13.70;2.45;;;;;;;6.47;nan;101863.00;5065348;28;20032;-49
2021/10/16 00:49:23;;;;;;;11.25;2.15;;;;;;;6.49;nan;101860.97;5067561;28;20478;-47
2021/10/16 00:51:48;;;;;;;12.23;2.30;;;;;;;6.45;nan;101873.00;5068659;28;20406;-48
2021/10/16 00:54:14;;;;;;;12.02;2.80;;;;;;;6.41;nan;101865.59;5067605;28;20270;-47
2021/10/16 00:56:44;;;;;;;12.85;2.90;;;;;;;6.41;nan;101870.94;5062738;28;20052;-48
2021/10/16 00:59:10;;;;;;;8.75;1.98;;;;;;;6.42;nan;101868.06;5065189;28;20072;-48
2021/10/16 01:01:37;;;;;;;13.68;2.38;;;;;;;6.40;nan;101874.59;5062544;28;20025;-48
2021/10/16 01:04:04;;;;;;;14.98;2.67;;;;;;;6.28;nan;101872.50;5066694;28;20024;-50
2021/10/16 01:06:31;;;;;;;12.05;2.97;;;;;;;6.39;nan;101873.78;5066158;28;20028;-49
2021/10/16 01:08:57;;;;;;;15.20;2.28;;;;;;;6.44;nan;101874.03;5060935;28;20031;-50
2021/10/16 01:11:34;;;;;;;13.38;3.35;;;;;;;6.39;nan;101880.94;5063982;28;20494;-47
2021/10/16 01:14:07;;;;;;;23.92;3.50;;;;;;;6.40;nan;101875.44;5065423;28;20051;-48
2021/10/16 01:16:34;;;;;;;14.35;2.13;;;;;;;6.38;nan;101869.47;5067159;28;20035;-50
2021/10/16 01:19:02;;;;;;;12.18;2.58;;;;;;;6.42;nan;101881.38;5067398;28;20066;-48
2021/10/16 01:21:30;;;;;;;18.85;2.60;;;;;;;6.44;nan;101875.88;5067008;28;20032;-49
2021/10/16 01:23:58;;;;;;;10.20;1.80;;;;;;;6.35;nan;101884.00;5065247;28;20188;-47
2021/10/16 01:26:27;;;;;;;16.35;2.80;;;;;;;6.26;nan;101879.81;5065952;28;20062;-48
2021/10/16 01:28:54;;;;;;;13.63;2.30;;;;;;;6.28;nan;101887.59;5062057;28;20375;-49
2021/10/16 01:31:22;;;;;;;15.32;3.00;;;;;;;6.29;nan;101883.97;5066273;28;20478;-47
2021/10/16 01:33:48;;;;;;;17.55;2.50;;;;;;;6.27;nan;101880.63;5067584;28;20070;-48
2021/10/16 01:36:13;;;;;;;16.38;2.70;;;;;;;6.23;nan;101879.38;5065420;28;20055;-49
2021/10/16 01:38:39;;;;;;;13.55;2.92;;;;;;;6.17;nan;101885.47;5064957;28;20368;-47
2021/10/16 01:41:05;;;;;;;14.30;3.17;;;;;;;6.14;nan;101885.88;5067372;28;20490;-49
2021/10/16 01:43:31;;;;;;;18.02;3.70;;;;;;;6.14;nan;101883.22;5066742;28;20036;-48
2021/10/16 01:45:56;;;;;;;15.48;3.92;;;;;;;6.09;nan;101883.75;5066921;28;20615;-47
2021/10/16 01:48:23;;;;;;;14.77;4.38;;;;;;;6.10;nan;101896.03;5067875;28;20511;-49
2021/10/16 01:50:50;;;;;;;10.95;2.63;;;;;;;6.05;nan;101888.63;5066067;28;20032;-47
2021/10/16 01:53:15;;;;;;;15.77;2.88;;;;;;;6.08;nan;101887.44;5065220;28;20027;-48
2021/10/16 01:55:41;;;;;;;21.33;3.65;;;;;;;6.09;nan;101890.91;5064427;28;20490;-48
2021/10/16 01:58:08;;;;;;;18.77;2.97;;;;;;;6.01;nan;101883.91;5065848;28;20424;-48
2021/10/16 02:00:34;;;;;;;11.77;2.42;;;;;;;5.94;nan;101885.69;5065899;28;20067;-49
2021/10/16 02:03:00;;;;;;;13.32;3.45;;;;;;;5.90;nan;101890.53;5065581;28;20060;-47
2021/10/16 02:05:26;;;;;;;23.58;3.42;;;;;;;5.86;nan;101883.91;5063449;28;20452;-48
2021/10/16 02:07:51;;;;;;;18.08;2.47;;;;;;;5.89;nan;101888.03;5062633;28;20036;-47
2021/10/16 02:10:17;;;;;;;9.68;2.00;;;;;;;5.86;nan;101891.06;5057687;28;20062;-47
2021/10/16 02:12:42;;;;;;;17.63;3.45;;;;;;;5.80;nan;101889.19;5060262;28;20081;-48
2021/10/16 02:15:08;;;;;;;19.55;3.97;;;;;;;5.82;nan;101890.63;5066671;28;20086;-47
2021/10/16 02:17:34;;;;;;;15.50;2.75;;;;;;;5.86;nan;101883.09;5066224;28;20046;-47
2021/10/16 02:19:59;;;;;;;11.43;2.58;;;;;;;5.78;nan;101886.72;5063298;28;20021;-48
2021/10/16 02:22:25;;;;;;;12.07;2.22;;;;;;;5.86;nan;101896.41;5062707;28;20171;-50
2021/10/16 02:24:50;;;;;;;20.83;3.15;;;;;;;5.81;nan;101896.97;5066940;28;20164;-47
2021/10/16 02:27:15;;;;;;;14.02;2.40;;;;;;;5.81;nan;101898.81;5048440;28;20035;-48
2021/10/16 02:29:41;;;;;;;10.63;2.10;;;;;;;5.79;nan;101906.16;5061944;28;20492;-47
2021/10/16 02:32:07;;;;;;;14.10;2.50;;;;;;;5.73;nan;101911.19;5066537;28;20028;-47
2021/10/16 02:34:33;;;;;;;13.27;2.63;;;;;;;5.72;nan;101922.84;5061013;28;20399;-48
2021/10/16 02:36:59;;;;;;;12.90;2.97;;;;;;;5.74;nan;101923.50;5059867;28;20116;-47
2021/10/16 02:39:25;;;;;;;18.33;2.33;;;;;;;5.72;nan;101917.50;5061456;28;20398;-49
2021/10/16 02:41:51;;;;;;;17.08;2.92;;;;;;;5.71;nan;101918.53;5066173;28;20037;-51
2021/10/16 02:44:16;;;;;;;16.42;2.50;;;;;;;5.79;nan;101922.09;5067560;28;20029;-47
2021/10/16 02:46:42;;;;;;;15.35;2.30;;;;;;;5.80;nan;101926.41;5064479;28;20073;-47
2021/10/16 02:49:08;;;;;;;8.57;3.25;;;;;;;5.79;nan;101938.06;5062331;28;20036;-47
2021/10/16 02:51:33;;;;;;;15.55;2.80;;;;;;;5.80;nan;101931.72;5063903;28;20386;-47
2021/10/16 02:53:59;;;;;;;16.38;2.85;;;;;;;5.80;nan;101937.88;5062402;28;20166;-47
2021/10/16 02:56:24;;;;;;;12.85;2.40;;;;;;;5.76;nan;101932.09;5070635;28;20024;-49
2021/10/16 02:58:50;;;;;;;19.40;3.00;;;;;;;5.72;nan;101936.13;5065871;28;20027;-47
2021/10/16 03:01:15;;;;;;;9.30;2.28;;;;;;;5.76;nan;101940.09;5068985;28;20386;-48
2021/10/16 03:03:40;;;;;;;14.02;2.15;;;;;;;5.75;nan;101942.94;5069800;28;20070;-48
2021/10/16 03:06:06;;;;;;;9.63;2.22;;;;;;;5.74;nan;101944.78;5067137;28;20367;-47
2021/10/16 03:08:31;;;;;;;11.18;2.85;;;;;;;5.84;nan;101943.63;5069387;28;20115;-47
2021/10/16 03:10:57;;;;;;;12.45;3.05;;;;;;;5.96;nan;101950.16;5068073;28;20020;-47
2021/10/16 03:13:22;;;;;;;18.90;3.10;;;;;;;5.99;nan;101945.28;5065838;28;20060;-49
2021/10/16 03:15:48;;;;;;;11.65;1.92;;;;;;;6.06;nan;101937.34;5066988;28;20035;-49
2021/10/16 03:18:13;;;;;;;8.00;2.33;;;;;;;6.05;nan;101939.19;5069220;28;20032;-48
2021/10/16 03:20:39;;;;;;;14.23;2.17;;;;;;;6.15;nan;101935.41;5060790;28;20048;-47
2021/10/16 03:23:07;;;;;;;14.55;2.28;;;;;;;6.15;nan;101944.22;5068757;28;20558;-47
2021/10/16 03:25:33;;;;;;;13.27;2.58;;;;;;;6.15;nan;101941.56;5070290;28;20379;-50
2021/10/16 03:27:58;;;;;;;23.20;3.08;;;;;;;6.14;nan;101941.75;5066132;28;20032;-48
2021/10/16 03:30:24;;;;;;;14.43;2.50;;;;;;;6.11;nan;101934.97;5066351;28;20200;-48
2021/10/16 03:32:49;;;;;;;11.60;2.45;;;;;;;6.09;nan;101942.28;5068535;28;20074;-47
2021/10/16 03:35:15;;;;;;;16.38;3.25;;;;;;;6.04;nan;101940.22;5068611;28;20044;-47
2021/10/16 03:37:40;;;;;;;9.88;2.75;;;;;;;5.96;nan;101943.00;5071102;28;20020;-47
2021/10/16 03:40:06;;;;;;;14.68;2.53;;;;;;;5.94;nan;101938.88;5068864;28;20028;-47
2021/10/16 03:42:32;;;;;;;12.57;2.38;;;;;;;5.96;nan;101943.00;5067341;28;20064;-47
2021/10/16 03:44:57;;;;;;;12.10;2.17;;;;;;;5.94;nan;101944.19;5067219;28;20055;-47
2021/10/16 03:47:22;;;;;;;15.55;2.70;;;;;;;5.82;nan;101950.97;5067588;28;20040;-49
2021/10/16 03:49:48;;;;;;;13.38;2.55;;;;;;;5.80;nan;101943.19;5069238;28;20123;-49
2021/10/16 03:52:14;;;;;;;13.80;2.83;;;;;;;5.73;nan;101950.25;5069543;28;20035;-48
2021/10/16 03:54:39;;;;;;;12.95;2.85;;;;;;;5.73;nan;101952.91;5068977;28;20036;-47
2021/10/16 03:57:04;;;;;;;15.15;2.47;;;;;;;5.66;nan;101952.03;5067757;28;20077;-47
2021/10/16 03:59:30;;;;;;;18.85;2.50;;;;;;;5.61;nan;101952.59;5067388;28;20044;-51
2021/10/16 04:01:57;;;;;;;9.95;2.50;;;;;;;5.70;nan;101962.09;5063006;28;20066;-47
2021/10/16 04:04:23;;;;;;;11.73;1.92;;;;;;;5.76;nan;101955.22;5070483;28;20028;-51
2021/10/16 04:06:48;;;;;;;18.35;2.80;;;;;;;5.73;nan;101952.91;5067932;28;20028;-47
2021/10/16 04:09:15;;;;;;;10.43;2.55;;;;;;;5.72;nan;101957.41;5069555;28;20017;-49
2021/10/16 04:11:40;;;;;;;13.80;2.20;;;;;;;5.66;nan;101952.84;5065881;28;20497;-47
2021/10/16 04:14:06;;;;;;;19.70;3.35;;;;;;;5.62;nan;101970.19;5068085;28;20032;-48
2021/10/16 04:16:31;;;;;;;11.55;2.65;;;;;;;5.62;nan;101959.56;5064323;28;20066;-48
2021/10/16 04:18:57;;;;;;;16.00;2.70;;;;;;;5.59;nan;101965.25;5070436;28;20051;-49
2021/10/16 04:21:22;;;;;;;11.68;2.25;;;;;;;5.59;nan;101961.75;5066271;28;20028;-47
2021/10/16 04:23:48;;;;;;;8.05;2.00;;;;;;;5.59;nan;101961.75;5066830;28;20032;-48
2021/10/16 04:26:13;;;;;;;15.15;2.70;;;;;;;5.46;nan;101963.22;5064883;28;20033;-47
2021/10/16 04:28:39;;;;;;;14.00;2.67;;;;;;;5.46;nan;101965.06;5067438;28;20020;-48
2021/10/16 04:31:04;;;;;;;12.35;2.22;;;;;;;5.41;nan;101962.97;5073624;28;20686;-49
2021/10/16 04:33:30;;;;;;;11.20;2.33;;;;;;;5.44;nan;101959.94;5051493;28;20060;-47
2021/10/16 04:35:55;;;;;;;18.77;2.38;;;;;;;5.47;nan;101958.75;5067619;28;20017;-47
2021/10/16 04:38:21;;;;;;;14.68;2.75;;;;;;;5.41;nan;101962.97;5066301;28;20071;-48
2021/10/16 04:40:46;;;;;;;22.38;2.72;;;;;;;5.44;nan;101965.25;5063999;28;20032;-49
2021/10/16 04:43:12;;;;;;;14.10;3.08;;;;;;;5.46;nan;101965.88;5072205;28;20059;-50
2021/10/16 04:45:37;;;;;;;13.50;3.08;;;;;;;5.47;nan;101964.06;5067278;28;20063;-47
2021/10/16 04:48:06;;;;;;;10.25;2.50;;;;;;;5.57;nan;101977.06;5040170;28;20497;-47
2021/10/16 04:50:31;;;;;;;20.00;2.78;;;;;;;5.50;nan;101971.66;5060866;28;20064;-47
2021/10/16 04:52:57;;;;;;;11.48;2.60;;;;;;;5.54;nan;101969.44;5063872;28;20055;-49
2021/10/16 04:55:23;;;;;;;13.77;2.25;;;;;;;5.55;nan;101968.44;5066149;28;20135;-48
2021/10/16 04:57:49;;;;;;;14.68;2.28;;;;;;;5.60;nan;101964.22;5067238;28;20107;-47
2021/10/16 05:00:15;;;;;;;15.27;2.63;;;;;;;5.61;nan;101968.53;5071190;28;20030;-48
2021/10/16 05:02:40;;;;;;;14.48;2.78;;;;;;;5.64;nan;101973.47;5068277;28;20043;-47
2021/10/16 05:05:06;;;;;;;10.80;3.10;;;;;;;5.63;nan;101969.16;5061862;28;20025;-47
2021/10/16 05:07:31;;;;;;;12.30;2.20;;;;;;;5.73;nan;101966.22;5070146;28;20032;-48
2021/10/16 05:09:57;;;;;;;14.55;2.50;;;;;;;5.72;nan;101962.72;5065533;28;20028;-47
2021/10/16 05:12:22;;;;;;;20.40;2.53;;;;;;;5.76;nan;101973.84;5066879;28;20028;-48
2021/10/16 05:14:48;;;;;;;17.38;2.60;;;;;;;5.78;nan;101976.31;5068437;28;20032;-49
2021/10/16 05:17:13;;;;;;;7.07;2.08;;;;;;;5.79;nan;101972.63;5067345;28;20078;-48
2021/10/16 05:19:39;;;;;;;13.90;3.45;;;;;;;5.83;nan;101981.88;5058366;28;20036;-48
2021/10/16 05:22:04;;;;;;;13.35;2.65;;;;;;;5.87;nan;101975.19;5064698;28;20032;-51
2021/10/16 05:24:30;;;;;;;21.13;3.00;;;;;;;5.96;nan;101974.91;5066967;28;20187;-48
2021/10/16 05:26:55;;;;;;;9.82;2.33;;;;;;;6.06;nan;101982.59;5065409;28;20025;-48
2021/10/16 05:29:21;;;;;;;14.07;2.70;;;;;;;6.15;nan;101988.63;5066014;28;20033;-48
2021/10/16 05:31:48;;;;;;;13.75;2.10;;;;;;;6.28;nan;101992.25;5069162;28;20073;-49
2021/10/16 05:34:13;;;;;;;11.02;2.28;;;;;;;6.35;nan;101987.81;5062404;28;20028;-49
2021/10/16 05:36:39;;;;;;;11.25;2.83;;;;;;;6.47;nan;101990.00;5063295;28;20102;-49
2021/10/16 05:39:04;;;;;;;8.90;2.10;;;;;;;6.50;nan;101997.59;5067058;28;20568;-49
2021/10/16 05:41:30;;;;;;;11.65;2.67;;;;;;;6.49;nan;101996.75;5061674;28;20021;-48
2021/10/16 05:43:55;;;;;;;11.27;2.13;;;;;;;6.50;nan;102005.56;5059087;28;20055;-49
2021/10/16 05:46:21;;;;;;;13.35;2.10;;;;;;;6.50;nan;102003.72;5064431;28;20119;-47
2021/10/16 05:48:46;;;;;;;10.00;2.08;;;;;;;6.55;nan;102003.16;5064058;28;20052;-48
2021/10/16 05:51:12;;;;;;;11.32;2.25;;;;;;;6.51;nan;102009.88;5065726;28;20036;-48
2021/10/16 05:53:37;;;;;;;16.38;2.42;;;;;;;6.58;nan;102019.56;5063115;28;20114;-48
2021/10/16 05:56:03;;;;;;;12.95;2.55;;;;;;;6.60;nan;102022.03;5066022;28;20020;-47
2021/10/16 05:58:28;;;;;;;21.75;2.90;;;;;;;6.67;nan;102020.28;5062649;28;20024;-47
2021/10/16 06:00:54;;;;;;;14.10;2.55;;;;;;;6.71;nan;102021.53;5063957;28;20028;-48
2021/10/16 06:03:19;;;;;;;12.85;2.40;;;;;;;6.72;nan;102025.03;5064220;28;20350;-47
2021/10/16 06:05:45;;;;;;;8.48;1.88;;;;;;;6.77;nan;102030.59;5065598;28;20205;-48
2021/10/16 06:08:11;;;;;;;10.07;2.13;;;;;;;6.88;nan;102030.09;5062769;28;20040;-47
2021/10/16 06:10:36;;;;;;;11.23;2.38;;;;;;;6.94;nan;102037.31;5065981;28;20024;-48
2021/10/16 06:13:02;;;;;;;9.98;2.30;;;;;;;6.98;nan;102039.38;5060829;28;20051;-47
2021/10/16 06:15:28;;;;;;;11.32;2.40;;;;;;;7.04;nan;102040.47;5062652;28;20474;-48
2021/10/16 06:17:53;;;;;;;12.10;1.92;;;;;;;7.08;nan;102044.41;5065741;28;20012;-48
2021/10/16 06:20:19;;;;;;;10.38;2.28;;;;;;;7.06;nan;102057.09;5062706;28;20039;-48
2021/10/16 06:22:45;;;;;;;11.55;1.85;;;;;;;7.15;nan;102055.09;5061305;28;20114;-48
2021/10/16 06:25:10;;;;;;;9.85;2.00;;;;;;;7.22;nan;102059.47;5063371;28;20088;-49
2021/10/16 06:27:36;;;;;;;12.80;2.30;;;;;;;7.23;nan;102053.13;5060239;28;20115;-47
2021/10/16 06:30:03;;;;;;;19.40;3.53;;;;;;;7.25;nan;102063.59;5063567;28;20071;-47
2021/10/16 06:32:29;;;;;;;7.53;2.47;;;;;;;7.33;nan;102058.09;5065682;28;20036;-49
2021/10/16 06:34:54;;;;;;;10.82;1.90;;;;;;;7.39;nan;102052.00;5065218;28;20354;-47
2021/10/16 06:37:20;;;;;;;9.32;1.65;;;;;;;7.48;nan;102061.50;5060933;28;20039;-47
2021/10/16 06:39:45;;;;;;;12.18;2.13;;;;;;;7.54;nan;102055.41;5062150;28;20390;-48
2021/10/16 06:42:11;;;;;;;11.55;2.75;;;;;;;7.64;nan;102055.03;5064889;28;20020;-47
2021/10/16 06:44:36;;;;;;;7.32;1.95;;;;;;;7.68;nan;102060.78;5065810;28;20146;-47
2021/10/16 06:47:02;;;;;;;6.18;1.80;;;;;;;7.77;nan;102060.44;5065453;28;20454;-48
2021/10/16 06:49:30;;;;;;;13.13;2.78;;;;;;;7.77;nan;102064.94;5065039;28;20033;-48
2021/10/16 06:51:55;;;;;;;10.52;2.35;;;;;;;7.87;nan;102063.56;5061295;28;20501;-48
2021/10/16 06:54:21;;;;;;;7.28;2.17;;;;;;;7.95;nan;102061.75;5062875;28;20371;-48
2021/10/16 06:56:46;;;;;;;9.27;2.20;;;;;;;7.89;nan;102071.34;5050007;28;20035;-49
2021/10/16 06:59:12;;;;;;;10.82;2.25;;;;;;;8.03;nan;102070.41;5064341;28;20432;-48
2021/10/16 07:01:37;;;;;;;11.07;3.10;;;;;;;8.11;nan;102072.91;5063764;28;20028;-48
2021/10/16 07:04:03;;;;;;;7.50;1.88;;;;;;;8.08;nan;102078.66;5070612;28;20621;-50
2021/10/16 07:06:28;;;;;;;11.23;1.85;;;;;;;8.24;nan;102084.66;5067574;28;20027;-48
2021/10/16 07:08:53;;;;;;;7.85;1.55;;;;;;;8.23;nan;102089.16;5061811;28;20025;-49
2021/10/16 07:11:19;;;;;;;15.00;2.25;;;;;;;8.29;nan;102087.56;5066652;28;20119;-49
2021/10/16 07:13:44;;;;;;;7.13;2.28;;;;;;;8.32;nan;102095.16;5062794;28;20490;-48
2021/10/16 07:16:11;;;;;;;8.80;2.00;;;;;;;8.41;nan;102091.31;5065334;28;20406;-47
2021/10/16 07:18:37;;;;;;;15.23;2.20;;;;;;;8.40;nan;102095.00;5057596;28;20059;-47
2021/10/16 07:21:03;;;;;;;8.05;1.80;;;;;;;8.27;nan;102090.44;5065957;28;20305;-49
2021/10/16 07:23:28;;;;;;;13.88;1.83;;;;;;;8.41;nan;102092.13;5053485;28;20029;-48
2021/10/16 07:25:56;;;;;;;10.13;1.80;;;;;;;8.24;nan;102087.31;5066706;28;20032;-50
2021/10/16 07:28:22;;;;;;;6.35;2.10;;;;;;;8.29;nan;102092.91;5064773;28;20032;-48
2021/10/16 07:30:48;;;;;;;14.65;2.08;;;;;;;8.26;nan;102101.28;5065834;28;20024;-47
2021/10/16 07:33:13;;;;;;;8.60;2.00;;;;;;;8.28;nan;102094.75;5068633;28;20021;-48
2021/10/16 07:35:43;;;;;;;11.75;2.15;;;;;;;8.35;nan;102097.47;5065063;28;20479;-48
2021/10/16 07:38:09;;;;;;;11.15;2.55;;;;;;;8.31;nan;102105.03;5056940;28;20036;-48
2021/10/16 07:40:35;;;;;;;7.88;1.73;;;;;;;8.48;nan;102100.19;5057538;28;20043;-48
2021/10/16 07:43:00;;;;;;;9.50;2.03;;;;;;;8.56;nan;102096.50;5064345;28;20028;-48
2021/10/16 07:45:27;;;;;;;13.98;2.28;;;;;;;8.53;nan;102099.56;5068922;28;20434;-49
2021/10/16 07:47:53;;;;;;;10.10;2.53;;;;;;;8.71;nan;102103.31;5065213;28;20174;-47
2021/10/16 07:50:19;;;;;;;10.68;2.03;;;;;;;8.77;nan;102099.00;5067293;28;20039;-48
2021/10/16 07:52:44;;;;;;;9.23;1.83;;;;;;;8.88;nan;102105.63;5069742;28;20057;-48
2021/10/16 07:55:10;;;;;;;9.25;1.52;;;;;;;8.87;nan;102110.13;5066498;28;20265;-50
2021/10/16 07:57:35;;;;;;;5.82;2.17;;;;;;;8.97;nan;102109.72;5056682;28;20205;-49
2021/10/16 08:00:01;;;;;;;15.07;2.35;;;;;;;9.12;nan;102107.69;5064093;28;20020;-48
2021/10/16 08:02:26;;;;;;;9.27;2.60;;;;;;;9.07;nan;102104.81;5067075;28;20025;-50
2021/10/16 08:04:52;;;;;;;9.15;2.50;;;;;;;9.21;nan;102116.34;5067903;28;20028;-49
2021/10/16 08:07:17;;;;;;;9.30;2.95;;;;;;;9.08;nan;102122.50;5069828;28;20032;-48
2021/10/16 08:09:42;;;;;;;11.93;2.15;;;;;;;9.19;nan;102121.06;5068253;28;20040;-48
2021/10/16 08:12:08;;;;;;;10.10;1.90;;;;;;;9.39;nan;102129.91;5065852;28;20063;-48
2021/10/16 08:14:34;;;;;;;11.05;2.10;;;;;;;9.49;nan;102124.97;5064937;28;20028;-50
2021/10/16 08:16:59;;;;;;;11.63;2.25;;;;;;;9.49;nan;102118.78;5073144;28;20032;-48
2021/10/16 08:19:25;;;;;;;6.80;1.98;;;;;;;9.67;nan;102129.66;5063030;28;20033;-48
2021/10/16 08:21:51;;;;;;;9.60;2.65;;;;;;;9.72;nan;102127.22;5073933;28;20040;-48
2021/10/16 08:24:16;;;;;;;5.75;1.80;;;;;;;9.78;nan;102126.38;5071935;28;20430;-48
2021/10/16 08:26:42;;;;;;;11.60;2.03;;;;;;;9.62;nan;102124.13;5066570;28;20028;-48
2021/10/16 08:29:07;;;;;;;10.18;2.03;;;;;;;10.25;nan;102125.25;5064934;28;20029;-49
2021/10/16 08:31:33;;;;;;;6.72;1.80;;;;;;;10.47;nan;102127.63;5072330;28;20086;-48
2021/10/16 08:33:58;;;;;;;7.60;1.90;;;;;;;10.36;nan;102134.44;5066909;28;20474;-50
2021/10/16 08:36:23;;;;;;;6.15;2.08;;;;;;;10.59;nan;102118.69;5067132;28;20032;-48
2021/10/16 08:38:52;;;;;;;5.20;1.55;;;;;;;10.87;nan;102128.22;5062685;28;20039;-50
2021/10/16 08:41:18;;;;;;;6.85;2.10;;;;;;;10.90;nan;102125.09;5061640;28;20075;-49
2021/10/16 08:43:44;;;;;;;7.40;1.75;;;;;;;10.77;nan;102134.06;5066122;28;20024;-48
2021/10/16 08:46:12;;;;;;;7.15;1.77;;;;;;;10.90;nan;102125.91;5051529;28;20066;-50
2021/10/16 08:48:41;;;;;;;6.13;1.88;;;;;;;10.87;nan;102130.88;5062078;28;20544;-48
2021/10/16 08:51:07;;;;;;;8.90;2.20;;;;;;;11.14;nan;102132.38;5072423;28;20071;-48
2021/10/16 08:53:33;;;;;;;8.82;1.83;;;;;;;10.81;nan;102140.63;5065207;28;20070;-48
2021/10/16 08:56:04;;;;;;;7.78;1.90;;;;;;;10.56;nan;102137.84;5065143;28;20020;-48
2021/10/16 08:58:31;;;;;;;7.20;1.83;;;;;;;10.42;nan;102135.47;5065451;28;20039;-48
2021/10/16 09:00:56;;;;;;;12.60;2.30;;;;;;;10.67;nan;102135.56;5067332;28;20016;-48
2021/10/16 09:03:30;;;;;;;7.72;1.70;;;;;;;10.71;nan;102142.13;5069957;28;20398;-48
2021/10/16 09:05:58;;;;;;;9.27;1.93;;;;;;;10.76;nan;102136.94;5064315;28;20425;-48
2021/10/16 09:08:44;;;;;;;9.32;1.77;;;;;;;10.51;nan;102134.19;5069288;28;20032;-48
2021/10/16 09:11:14;;;;;;;11.30;2.10;;;;;;;10.71;nan;102132.22;5063819;28;20060;-48
2021/10/16 09:13:49;;;;;;;8.43;2.13;;;;;;;10.90;nan;102138.50;5059649;28;20064;-48
2021/10/16 09:16:29;;;;;;;8.57;2.13;;;;;;;11.24;nan;102144.44;5066412;28;20028;-48
2021/10/16 09:19:14;;;;;;;8.05;1.88;;;;;;;11.35;nan;102141.91;5055602;28;20025;-48
2021/10/16 09:21:47;;;;;;;7.75;2.40;;;;;;;11.75;nan;102131.59;5066367;28;20028;-48
2021/10/16 09:24:16;;;;;;;7.25;1.63;;;;;;;11.78;nan;102136.56;5060401;28;20037;-48
2021/10/16 09:26:44;;;;;;;8.45;2.35;;;;;;;11.32;nan;102136.16;5064957;28;20588;-49
2021/10/16 09:29:12;;;;;;;10.18;1.70;;;;;;;11.54;nan;102132.03;5072148;28;20364;-48
2021/10/16 09:31:39;;;;;;;16.13;3.45;;;;;;;11.40;nan;102143.91;5068859;28;20056;-48
2021/10/16 09:34:05;;;;;;;19.63;5.05;;;;;;;11.82;nan;102144.16;5072686;28;20054;-49
2021/10/16 09:36:31;;;;;;;9.55;2.63;;;;;;;12.20;nan;102143.94;5064761;28;20044;-48
2021/10/16 09:38:59;;;;;;;8.10;2.78;;;;;;;11.99;nan;102142.53;5067877;28;20024;-50
2021/10/16 09:41:27;;;;;;;11.82;2.38;;;;;;;12.20;nan;102142.09;5064831;28;20059;-52
2021/10/16 09:43:53;;;;;;;10.35;2.03;;;;;;;12.12;nan;102142.41;5063556;28;20038;-51
2021/10/16 09:46:20;;;;;;;10.52;2.70;;;;;;;12.01;nan;102143.13;5064542;28;20107;-52
2021/10/16 09:48:46;;;;;;;8.77;2.00;;;;;;;11.66;nan;102132.91;5063659;28;20101;-48
2021/10/16 09:51:14;;;;;;;11.20;2.22;;;;;;;12.05;nan;102153.22;5065330;28;20024;-51
2021/10/16 09:54:06;;;;;;;7.72;1.77;;;;;;;11.73;nan;102146.31;5062912;28;20036;-49
2021/10/16 09:56:35;;;;;;;7.22;1.55;;;;;;;12.18;nan;102146.88;5046512;28;20448;-49
2021/10/16 09:59:01;;;;;;;8.05;1.90;;;;;;;11.43;nan;102149.66;5061027;28;20822;-47
2021/10/16 10:01:28;;;;;;;5.50;1.55;;;;;;;11.49;nan;102147.97;5063000;28;20032;-50
2021/10/16 10:03:55;;;;;;;9.52;2.33;;;;;;;11.41;nan;102157.09;5066802;28;20028;-51
2021/10/16 10:06:22;;;;;;;7.25;1.50;;;;;;;11.53;nan;102142.97;5066028;28;20073;-51
2021/10/16 10:08:48;;;;;;;9.40;1.33;;;;;;;11.68;nan;102146.97;5065541;28;20485;-48
2021/10/16 10:11:16;;;;;;;7.40;1.60;;;;;;;11.79;nan;102138.19;5067523;28;20063;-49
2021/10/16 10:13:41;;;;;;;4.65;1.58;;;;;;;11.51;nan;102156.63;5066523;28;20470;-50
2021/10/16 10:16:08;;;;;;;6.60;1.92;;;;;;;11.20;nan;102146.75;5063803;28;20057;-48
2021/10/16 10:21:21;;;;;;;7.97;1.80;;;;;;;11.68;nan;102152.34;5065770;28;20119;-50
2021/10/16 10:23:55;;;;;;;6.55;1.65;;;;;;;11.63;nan;102154.03;5063097;28;20032;-49
2021/10/16 10:26:32;;;;;;;7.22;1.80;;;;;;;11.38;nan;102154.03;5065594;28;20024;-51
2021/10/16 10:29:05;;;;;;;9.73;2.08;;;;;;;11.63;nan;102157.53;5054733;28;20043;-52
2021/10/16 10:31:46;;;;;;;17.48;5.53;;;;;;;12.22;nan;102158.00;5063511;28;20016;-49
2021/10/16 10:34:16;;;;;;;13.80;3.38;;;;;;;12.04;nan;102162.34;5060902;28;20039;-48
2021/10/16 10:36:59;;;;;;;23.90;9.23;;;;;;;12.43;nan;102159.41;5061796;28;20029;-49
2021/10/16 10:39:32;;;;;;;18.92;5.78;;;;;;;11.87;nan;102158.59;5061690;28;20020;-48
2021/10/16 10:41:58;;;;;;;5.50;2.08;;;;;;;11.98;nan;102152.47;5064017;28;20024;-49
2021/10/16 10:44:42;;;;;;;16.23;6.05;;;;;;;12.29;nan;102153.38;5064240;28;20028;-48
2021/10/16 10:47:28;;;;;;;4.85;1.25;;;;;;;12.33;nan;102155.38;5061824;28;20615;-49
2021/10/16 10:49:55;;;;;;;12.48;2.13;;;;;;;12.52;nan;102149.97;5037035;28;20063;-51
2021/10/16 10:52:26;;;;;;;11.73;1.75;;;;;;;12.29;nan;102148.00;5054879;28;20028;-48
2021/10/16 10:55:07;;;;;;;9.15;1.40;;;;;;;12.03;nan;102146.44;5061941;28;20020;-48
2021/10/16 10:57:58;;;;;;;8.45;1.85;;;;;;;12.62;nan;102152.97;5061356;28;20540;-48
2021/10/16 11:00:34;;;;;;;5.20;1.30;;;;;;;12.92;nan;102148.38;5060036;28;20087;-51
2021/10/16 11:02:59;;;;;;;3.72;1.48;;;;;;;13.12;nan;102142.72;5062087;28;20032;-49
2021/10/16 11:05:32;;;;;;;5.13;1.50;;;;;;;12.76;nan;102149.03;5045307;28;20033;-51
2021/10/16 11:08:07;;;;;;;6.72;1.42;;;;;;;12.74;nan;102143.03;5056605;28;21413;-50
2021/10/16 11:10:33;;;;;;;6.80;1.60;;;;;;;12.39;nan;102138.38;5060050;28;20048;-48
2021/10/16 11:13:19;;;;;;;5.55;1.52;;;;;;;12.23;nan;102132.78;5058027;28;20426;-48
2021/10/16 11:15:55;;;;;;;5.50;2.22;;;;;;;13.04;nan;102126.06;5060225;28;20027;-48
2021/10/16 11:18:21;;;;;;;7.03;1.25;;;;;;;12.95;nan;102139.03;5064024;28;20032;-50
2021/10/16 11:20:46;;;;;;;3.42;1.02;;;;;;;13.30;nan;102125.69;5064824;28;21453;-49
2021/10/16 11:23:19;;;;;;;6.72;1.38;;;;;;;12.75;nan;102138.50;5067042;28;20475;-50
2021/10/16 11:25:59;;;;;;;3.88;1.00;;;;;;;13.19;nan;102124.63;5063640;28;20704;-49
2021/10/16 11:28:26;;;;;;;3.15;1.20;;;;;;;12.76;nan;102134.78;5067171;28;20025;-51
2021/10/16 11:30:56;;;;;;;7.93;1.73;;;;;;;12.62;nan;102136.81;5063395;28;20435;-49
2021/10/16 11:33:29;;;;;;;4.57;1.48;;;;;;;12.59;nan;102137.28;5064896;28;20287;-48
2021/10/16 11:35:58;;;;;;;4.50;1.05;;;;;;;12.67;nan;102123.50;5065744;28;20120;-49
2021/10/16 11:38:32;;;;;;;2.95;1.08;;;;;;;12.57;nan;102125.94;5065654;28;20073;-48
2021/10/16 11:40:59;;;;;;;5.90;1.40;;;;;;;12.75;nan;102123.19;5068140;28;20036;-49
2021/10/16 11:43:38;;;;;;;5.78;1.30;;;;;;;12.78;nan;102125.44;5066656;28;20040;-48